Back to Top

Language: 

My Weather Underground Personal Weather Station Historical Data with Graphs...

Delerius Weather Station Historical Data
Daily Summary for December 29, 2017 Units:  English    Metric   Both
« Previous Day
Next Day »
Daily Weekly Monthly Yearly Custom
  High: Low: Average:
Temperature: 41.7 °F 29.7 °F 35.8 °F
Dew Point: 38.2 °F 27.3 °F 33 °F
Humidity: 97 % 80 % 90 %
Wind Speed: 22.0 mph 0.0 mph 6.6 mph
Wind Gust: 33.0 mph - -
Wind:- - SW
Pressure: 29.61 in 29.17 in -
Precipitation: 0.13 in    
Historical Graphs
 
 
Tabular Data for December 29, 2017
Time Temperature Dew Point Pressure Wind Wind Speed Wind Gust Humidity Rainfall Rate (Hourly) solar Conditions
00:00 32.0 °F 29.1 °F 29.60 in West 1.0 mph 4.0 mph 89 % 0.00 in 0 W/m2
00:05 32.0 °F 29.4 °F 29.61 in West 3.0 mph 5.0 mph 90 % 0.00 in 0 W/m2
00:10 32.0 °F 29.4 °F 29.60 in WNW 2.0 mph 5.0 mph 90 % 0.00 in 0 W/m2
00:12 32.0 °F 29.4 °F 29.60 in WNW 1.0 mph 4.0 mph 90 % 0.00 in 0 W/m2
00:15 32.0 °F 29.4 °F 29.60 in WNW 1.0 mph 3.0 mph 90 % 0.00 in 0 W/m2
00:19 32.0 °F 29.4 °F 29.60 in Calm   3.0 mph 90 % 0.00 in 0 W/m2
00:21 32.0 °F 29.4 °F 29.60 in Calm   2.0 mph 90 % 0.00 in 0 W/m2
00:26 31.8 °F 28.9 °F 29.60 in South 3.0 mph 6.0 mph 89 % 0.00 in 0 W/m2
00:31 31.6 °F 28.8 °F 29.59 in WSW 1.0 mph 4.0 mph 89 % 0.00 in 0 W/m2
00:34 31.6 °F 28.8 °F 29.59 in Calm   2.0 mph 89 % 0.00 in 0 W/m2
00:39 31.5 °F 28.6 °F 29.58 in Calm   1.0 mph 89 % 0.00 in 0 W/m2
00:40 31.5 °F 28.6 °F 29.58 in Calm   1.0 mph 89 % 0.00 in 0 W/m2
00:45 31.3 °F 28.4 °F 29.58 in Calm     89 % 0.00 in 0 W/m2
00:50 31.3 °F 28.4 °F 29.57 in Calm     89 % 0.00 in 0 W/m2
00:51 31.1 °F 28.2 °F 29.57 in Calm     89 % 0.00 in 0 W/m2
00:54 30.9 °F 28.1 °F 29.57 in Calm   1.0 mph 89 % 0.00 in 0 W/m2
00:56 30.9 °F 28.1 °F 29.57 in WSW 1.0 mph 3.0 mph 89 % 0.00 in 0 W/m2
01:01 30.7 °F 27.9 °F 29.57 in Calm     89 % 0.00 in 0 W/m2
01:03 30.6 °F 27.7 °F 29.57 in Calm     89 % 0.00 in 0 W/m2
01:08 30.6 °F 27.7 °F 29.58 in Calm     89 % 0.00 in 0 W/m2
01:09 30.4 °F 27.5 °F 29.58 in Calm     89 % 0.00 in 0 W/m2
01:14 30.4 °F 27.8 °F 29.57 in Calm     90 % 0.00 in 0 W/m2
01:20 30.0 °F 27.4 °F 29.58 in WSW 2.0 mph 5.0 mph 90 % 0.00 in 0 W/m2
01:21 30.0 °F 27.4 °F 29.59 in WSW 2.0 mph 5.0 mph 90 % 0.00 in 0 W/m2
01:26 30.4 °F 28.1 °F 29.59 in WSW 4.0 mph 6.0 mph 91 % 0.00 in 0 W/m2
01:27 30.4 °F 28.1 °F 29.59 in WSW 3.0 mph 6.0 mph 91 % 0.00 in 0 W/m2
01:32 30.4 °F 27.8 °F 29.59 in West 4.0 mph 6.0 mph 90 % 0.00 in 0 W/m2
01:33 30.4 °F 27.8 °F 29.59 in West 3.0 mph 5.0 mph 90 % 0.00 in 0 W/m2
01:38 30.4 °F 27.8 °F 29.58 in West 3.0 mph 6.0 mph 90 % 0.00 in 0 W/m2
01:44 30.4 °F 27.8 °F 29.58 in WNW 3.0 mph 5.0 mph 90 % 0.00 in 0 W/m2
01:45 30.4 °F 27.8 °F 29.58 in WNW 2.0 mph 4.0 mph 90 % 0.00 in 0 W/m2
01:50 30.2 °F 27.6 °F 29.57 in WNW 1.0 mph 2.0 mph 90 % 0.00 in 0 W/m2
01:52 30.2 °F 27.6 °F 29.57 in WNW 1.0 mph 4.0 mph 90 % 0.00 in 0 W/m2
01:57 30.2 °F 27.6 °F 29.57 in Calm   2.0 mph 90 % 0.00 in 0 W/m2
01:58 30.2 °F 27.6 °F 29.57 in Calm   2.0 mph 90 % 0.00 in 0 W/m2
02:03 30.0 °F 27.4 °F 29.56 in Calm     90 % 0.00 in 0 W/m2
02:04 30.0 °F 27.4 °F 29.56 in Calm     90 % 0.00 in 0 W/m2
02:08 30.0 °F 27.4 °F 29.56 in Calm     90 % 0.00 in 0 W/m2
02:13 30.0 °F 27.4 °F 29.56 in Calm   2.0 mph 90 % 0.00 in 0 W/m2
02:18 30.0 °F 27.4 °F 29.56 in Calm   2.0 mph 90 % 0.00 in 0 W/m2
02:23 30.0 °F 27.4 °F 29.56 in WSW 1.0 mph 4.0 mph 90 % 0.00 in 0 W/m2
02:26 30.0 °F 27.4 °F 29.56 in WSW 1.0 mph 5.0 mph 90 % 0.00 in 0 W/m2
02:31 30.0 °F 27.7 °F 29.56 in WSW 2.0 mph 4.0 mph 91 % 0.00 in 0 W/m2
02:36 30.0 °F 27.4 °F 29.56 in WSW 1.0 mph 4.0 mph 90 % 0.00 in 0 W/m2
02:42 30.0 °F 27.4 °F 29.55 in SW 2.0 mph 5.0 mph 90 % 0.00 in 0 W/m2
02:43 30.0 °F 27.4 °F 29.55 in SSW 2.0 mph 5.0 mph 90 % 0.00 in 0 W/m2
02:48 29.8 °F 27.3 °F 29.54 in South 1.0 mph 4.0 mph 90 % 0.00 in 0 W/m2
02:50 29.8 °F 27.3 °F 29.54 in South 2.0 mph 5.0 mph 90 % 0.00 in 0 W/m2
02:54 29.8 °F 27.3 °F 29.53 in South 1.0 mph 2.0 mph 90 % 0.00 in 0 W/m2
02:57 29.8 °F 27.3 °F 29.53 in South 2.0 mph 4.0 mph 90 % 0.00 in 0 W/m2
03:02 29.8 °F 27.5 °F 29.53 in Calm     91 % 0.00 in 0 W/m2
03:03 29.8 °F 27.5 °F 29.53 in Calm     91 % 0.00 in 0 W/m2
03:07 29.8 °F 27.5 °F 29.53 in Calm     91 % 0.00 in 0 W/m2
03:11 29.8 °F 27.5 °F 29.53 in Calm     91 % 0.00 in 0 W/m2
03:17 29.7 °F 27.4 °F 29.52 in Calm     91 % 0.00 in 0 W/m2
03:22 29.8 °F 27.5 °F 29.52 in SSW 1.0 mph 4.0 mph 91 % 0.00 in 0 W/m2
03:27 29.8 °F 27.5 °F 29.52 in Calm   3.0 mph 91 % 0.00 in 0 W/m2
03:29 29.8 °F 27.5 °F 29.52 in SSW 1.0 mph 4.0 mph 91 % 0.00 in 0 W/m2
03:30 29.8 °F 27.5 °F 29.52 in SSW 1.0 mph 4.0 mph 91 % 0.00 in 0 W/m2
03:35 29.8 °F 27.5 °F 29.51 in South 2.0 mph 6.0 mph 91 % 0.00 in 0 W/m2
03:37 30.0 °F 27.7 °F 29.51 in SSE 3.0 mph 7.0 mph 91 % 0.00 in 0 W/m2
03:42 30.2 °F 28.2 °F 29.51 in SSE 5.0 mph 7.0 mph 92 % 0.00 in 0 W/m2
03:47 30.4 °F 28.3 °F 29.50 in SSE 2.0 mph 6.0 mph 92 % 0.00 in 0 W/m2
03:48 30.4 °F 28.3 °F 29.50 in SSE 2.0 mph 6.0 mph 92 % 0.00 in 0 W/m2
03:53 30.6 °F 28.5 °F 29.50 in SSE 3.0 mph 5.0 mph 92 % 0.00 in 0 W/m2
03:55 30.6 °F 28.5 °F 29.50 in SSE 2.0 mph 5.0 mph 92 % 0.00 in 0 W/m2
04:00 30.6 °F 28.5 °F 29.49 in SE 3.0 mph 7.0 mph 92 % 0.00 in 0 W/m2
04:02 30.6 °F 28.5 °F 29.49 in SE 3.0 mph 6.0 mph 92 % 0.00 in 0 W/m2
04:07 30.7 °F 28.7 °F 29.48 in ESE 1.0 mph 6.0 mph 92 % 0.00 in 0 W/m2
04:11 30.7 °F 28.7 °F 29.47 in ESE 2.0 mph 6.0 mph 92 % 0.00 in 0 W/m2
04:16 30.9 °F 28.9 °F 29.47 in SE 1.0 mph 6.0 mph 92 % 0.00 in 0 W/m2
04:17 30.7 °F 28.7 °F 29.47 in SE 2.0 mph 6.0 mph 92 % 0.00 in 0 W/m2
04:22 30.9 °F 28.9 °F 29.46 in SE 3.0 mph 5.0 mph 92 % 0.00 in 0 W/m2
04:25 30.9 °F 28.9 °F 29.46 in SSE 3.0 mph 6.0 mph 92 % 0.00 in 0 W/m2
04:27 30.9 °F 28.9 °F 29.46 in SSE 3.0 mph 6.0 mph 92 % 0.00 in 0 W/m2
04:32 30.9 °F 28.9 °F 29.46 in SSE 5.0 mph 8.0 mph 92 % 0.00 in 0 W/m2
04:33 30.9 °F 28.9 °F 29.46 in SE 4.0 mph 8.0 mph 92 % 0.00 in 0 W/m2
04:37 30.9 °F 28.9 °F 29.46 in SSE 4.0 mph 7.0 mph 92 % 0.00 in 0 W/m2
04:38 30.9 °F 28.9 °F 29.45 in South 4.0 mph 7.0 mph 92 % 0.00 in 0 W/m2
04:43 31.1 °F 29.0 °F 29.45 in SSE 1.0 mph 5.0 mph 92 % 0.00 in 0 W/m2
04:45 31.1 °F 29.0 °F 29.45 in South 2.0 mph 7.0 mph 92 % 0.00 in 0 W/m2
04:49 31.3 °F 29.2 °F 29.45 in SSE 4.0 mph 7.0 mph 92 % 0.00 in 0 W/m2
04:50 31.3 °F 29.2 °F 29.45 in SSE 4.0 mph 7.0 mph 92 % 0.00 in 0 W/m2
04:51 31.3 °F 29.2 °F 29.44 in SE 5.0 mph 8.0 mph 92 % 0.00 in 0 W/m2
04:56 31.3 °F 29.2 °F 29.44 in SSE 3.0 mph 7.0 mph 92 % 0.00 in 0 W/m2
04:58 31.3 °F 29.2 °F 29.44 in SSE 5.0 mph 7.0 mph 92 % 0.00 in 0 W/m2
04:59 31.3 °F 29.2 °F 29.44 in SSE 5.0 mph 7.0 mph 92 % 0.00 in 0 W/m2
05:04 31.3 °F 29.2 °F 29.43 in SE 5.0 mph 7.0 mph 92 % 0.00 in 0 W/m2
05:09 31.3 °F 29.2 °F 29.43 in SSE 4.0 mph 7.0 mph 92 % 0.00 in 0 W/m2
05:14 31.3 °F 29.2 °F 29.42 in SE 5.0 mph 8.0 mph 92 % 0.00 in 0 W/m2
05:15 31.3 °F 29.2 °F 29.42 in SE 5.0 mph 8.0 mph 92 % 0.00 in 0 W/m2
05:16 31.3 °F 29.2 °F 29.42 in SE 6.0 mph 9.0 mph 92 % 0.00 in 0 W/m2
05:21 31.5 °F 29.4 °F 29.42 in SSE 6.0 mph 10.0 mph 92 % 0.00 in 0 W/m2
05:23 31.5 °F 29.4 °F 29.42 in SSE 6.0 mph 9.0 mph 92 % 0.00 in 0 W/m2
05:26 31.6 °F 29.6 °F 29.41 in SE 5.0 mph 8.0 mph 92 % 0.00 in 0 W/m2
05:29 31.6 °F 29.6 °F 29.41 in SE 6.0 mph 9.0 mph 92 % 0.00 in 0 W/m2
05:34 31.8 °F 29.8 °F 29.40 in SSE 8.0 mph 12.0 mph 92 % 0.00 in 0 W/m2
05:35 32.0 °F 30.2 °F 29.40 in SSE 7.0 mph 10.0 mph 93 % 0.00 in 0 W/m2
05:40 32.2 °F 30.1 °F 29.40 in SE 7.0 mph 9.0 mph 92 % 0.00 in 0 W/m2
05:45 32.4 °F 30.3 °F 29.39 in SE 7.0 mph 10.0 mph 92 % 0.00 in 0 W/m2
05:49 32.4 °F 30.3 °F 29.39 in SE 6.0 mph 10.0 mph 92 % 0.00 in 0 W/m2
05:54 32.4 °F 30.3 °F 29.39 in SSE 6.0 mph 9.0 mph 92 % 0.00 in 0 W/m2
05:58 32.4 °F 30.3 °F 29.38 in SE 5.0 mph 10.0 mph 92 % 0.00 in 0 W/m2
06:02 32.4 °F 30.3 °F 29.38 in SSE 6.0 mph 10.0 mph 92 % 0.00 in 0 W/m2
06:03 32.4 °F 30.3 °F 29.38 in SE 8.0 mph 12.0 mph 92 % 0.00 in 0 W/m2
06:08 32.4 °F 30.3 °F 29.37 in SE 9.0 mph 13.0 mph 92 % 0.00 in 0 W/m2
06:14 32.4 °F 30.3 °F 29.36 in SE 6.0 mph 9.0 mph 92 % 0.00 in 0 W/m2
06:17 32.4 °F 30.3 °F 29.36 in ESE 7.0 mph 10.0 mph 92 % 0.00 in 0 W/m2
06:19 32.2 °F 30.1 °F 29.35 in SE 7.0 mph 10.0 mph 92 % 0.00 in 0 W/m2
06:25 32.2 °F 30.4 °F 29.35 in SE 9.0 mph 14.0 mph 93 % 0.00 in 0 W/m2
06:34 32.0 °F 30.2 °F 29.34 in SE 6.0 mph 10.0 mph 93 % 0.00 in 0 W/m2
06:36 32.0 °F 30.2 °F 29.33 in SE 6.0 mph 8.0 mph 93 % 0.00 in 0 W/m2
06:41 32.2 °F 30.4 °F 29.33 in SE 6.0 mph 9.0 mph 93 % 0.00 in 0 W/m2
06:42 32.2 °F 30.4 °F 29.33 in SE 5.0 mph 9.0 mph 93 % 0.00 in 0 W/m2
06:44 32.2 °F 30.6 °F 29.33 in SE 6.0 mph 10.0 mph 94 % 0.00 in 0 W/m2
06:49 32.2 °F 30.6 °F 29.32 in SE 5.0 mph 7.0 mph 94 % 0.00 in 0 W/m2
06:51 32.4 °F 30.8 °F 29.32 in SE 6.0 mph 11.0 mph 94 % 0.00 in 0 W/m2
06:53 32.4 °F 30.8 °F 29.32 in SE 5.0 mph 11.0 mph 94 % 0.00 in 0 W/m2
06:58 32.4 °F 30.8 °F 29.31 in SE 6.0 mph 9.0 mph 94 % 0.00 in 0 W/m2
06:59 32.4 °F 30.8 °F 29.31 in SE 6.0 mph 8.0 mph 94 % 0.00 in 0 W/m2
07:03 32.5 °F 31.0 °F 29.31 in SE 5.0 mph 8.0 mph 94 % 0.00 in 0 W/m2
07:04 32.5 °F 31.0 °F 29.31 in SE 5.0 mph 8.0 mph 94 % 0.00 in 0 W/m2
07:09 32.5 °F 31.0 °F 29.30 in SE 5.0 mph 8.0 mph 94 % 0.00 in 0 W/m2
07:10 32.5 °F 31.0 °F 29.30 in SE 5.0 mph 7.0 mph 94 % 0.00 in 0 W/m2
07:15 32.5 °F 31.0 °F 29.30 in SE 5.0 mph 8.0 mph 94 % 0.00 in 0 W/m2
07:17 32.5 °F 31.0 °F 29.29 in SE 5.0 mph 9.0 mph 94 % 0.00 in 0 W/m2
07:21 32.7 °F 31.4 °F 29.29 in SE 4.0 mph 6.0 mph 95 % 0.00 in 0 W/m2
07:26 32.7 °F 31.4 °F 29.28 in SE 5.0 mph 8.0 mph 95 % 0.00 in 0 W/m2
07:31 32.9 °F 31.6 °F 29.28 in SE 5.0 mph 8.0 mph 95 % 0.00 in 0 W/m2
07:34 33.1 °F 31.8 °F 29.27 in SE 7.0 mph 11.0 mph 95 % 0.00 in 0 W/m2
07:39 33.3 °F 32.0 °F 29.27 in SE 8.0 mph 13.0 mph 95 % 0.00 in 0 W/m2
07:40 33.3 °F 32.0 °F 29.27 in SE 8.0 mph 13.0 mph 95 % 0.00 in 0 W/m2
07:41 33.3 °F 32.0 °F 29.27 in SE 8.0 mph 12.0 mph 95 % 0.00 in 0 W/m2
07:45 33.3 °F 32.0 °F 29.26 in SE 7.0 mph 10.0 mph 95 % 0.00 in 0 W/m2
07:50 33.3 °F 32.0 °F 29.26 in SE 7.0 mph 11.0 mph 95 % 0.00 in 0 W/m2
07:51 33.3 °F 32.0 °F 29.25 in SE 6.0 mph 10.0 mph 95 % 0.00 in 0 W/m2
07:55 33.3 °F 32.0 °F 29.25 in SE 6.0 mph 10.0 mph 95 % 0.00 in 0 W/m2
08:00 33.3 °F 32.0 °F 29.25 in SE 7.0 mph 11.0 mph 95 % 0.00 in 0 W/m2
08:05 33.3 °F 32.0 °F 29.24 in SE 7.0 mph 10.0 mph 95 % 0.00 in 0 W/m2
08:06 33.3 °F 32.0 °F 29.24 in SE 8.0 mph 10.0 mph 95 % 0.00 in 0 W/m2
08:09 33.3 °F 32.0 °F 29.24 in SE 7.0 mph 9.0 mph 95 % 0.00 in 0 W/m2
08:12 33.3 °F 32.0 °F 29.24 in SE 6.0 mph 10.0 mph 95 % 0.00 in 0 W/m2
08:17 33.3 °F 32.0 °F 29.23 in SE 7.0 mph 10.0 mph 95 % 0.00 in 0 W/m2
08:23 33.4 °F 32.2 °F 29.23 in SE 5.0 mph 9.0 mph 95 % 0.00 in 0 W/m2
08:28 33.4 °F 32.2 °F 29.22 in SE 5.0 mph 8.0 mph 95 % 0.00 in 0 W/m2
08:29 33.4 °F 32.2 °F 29.22 in SE 5.0 mph 7.0 mph 95 % 0.00 in 0 W/m2
08:34 33.4 °F 32.2 °F 29.22 in SE 5.0 mph 8.0 mph 95 % 0.00 in 0 W/m2
08:36 33.4 °F 32.2 °F 29.22 in SE 5.0 mph 8.0 mph 95 % 0.00 in 0 W/m2
08:41 33.4 °F 32.2 °F 29.21 in SE 4.0 mph 8.0 mph 95 % 0.00 in 0 W/m2
08:43 33.4 °F 32.2 °F 29.21 in SE 4.0 mph 6.0 mph 95 % 0.00 in 0 W/m2
08:45 33.4 °F 32.2 °F 29.21 in SE 4.0 mph 6.0 mph 95 % 0.00 in 0 W/m2
08:49 33.4 °F 32.2 °F 29.21 in SE 3.0 mph 5.0 mph 95 % 0.00 in 0 W/m2
08:52 33.4 °F 32.2 °F 29.21 in SE 2.0 mph 4.0 mph 95 % 0.00 in 0 W/m2
08:54 33.3 °F 32.0 °F 29.20 in SE 1.0 mph 2.0 mph 95 % 0.00 in 0 W/m2
08:58 33.3 °F 32.0 °F 29.20 in SE 1.0 mph 3.0 mph 95 % 0.00 in 0 W/m2
09:02 33.3 °F 32.0 °F 29.20 in ESE 1.0 mph 4.0 mph 95 % 0.00 in 0 W/m2
09:07 33.3 °F 32.0 °F 29.20 in ESE 2.0 mph 4.0 mph 95 % 0.00 in 0 W/m2
09:12 33.3 °F 32.0 °F 29.20 in ESE 2.0 mph 5.0 mph 95 % 0.00 in 0 W/m2
09:16 33.3 °F 32.0 °F 29.20 in SE 4.0 mph 6.0 mph 95 % 0.00 in 0 W/m2
09:19 33.3 °F 32.0 °F 29.19 in SE 3.0 mph 6.0 mph 95 % 0.00 in 0 W/m2
09:24 33.3 °F 32.0 °F 29.19 in ESE 2.0 mph 5.0 mph 95 % 0.00 in 5 W/m2
09:25 33.3 °F 32.0 °F 29.19 in ESE 2.0 mph 4.0 mph 95 % 0.00 in 5 W/m2
09:29 33.3 °F 32.0 °F 29.19 in ESE 1.0 mph 2.0 mph 95 % 0.00 in 5 W/m2
09:34 33.1 °F 32.1 °F 29.19 in Calm   2.0 mph 96 % 0.00 in 5 W/m2
09:35 33.3 °F 32.2 °F 29.19 in ESE 1.0 mph 2.0 mph 96 % 0.00 in 5 W/m2
09:39 33.3 °F 32.2 °F 29.19 in ESE 1.0 mph 4.0 mph 96 % 0.00 in 5 W/m2
09:40 33.3 °F 32.2 °F 29.19 in ESE 1.0 mph 4.0 mph 96 % 0.00 in 7 W/m2
09:45 33.3 °F 32.2 °F 29.19 in Calm   1.0 mph 96 % 0.00 in 5 W/m2
09:46 33.3 °F 32.2 °F 29.19 in Calm   1.0 mph 96 % 0.00 in 5 W/m2
09:51 33.3 °F 32.2 °F 29.19 in Calm     96 % 0.00 in 5 W/m2
09:52 33.3 °F 32.2 °F 29.19 in Calm     96 % 0.00 in 5 W/m2
09:57 33.3 °F 32.2 °F 29.19 in Calm     96 % 0.00 in 7 W/m2
09:58 33.3 °F 32.2 °F 29.19 in Calm     96 % 0.00 in 7 W/m2
09:59 33.3 °F 32.2 °F 29.19 in Calm     96 % 0.00 in 7 W/m2
10:04 33.3 °F 32.2 °F 29.19 in Calm     96 % 0.00 in 5 W/m2
10:08 33.3 °F 32.2 °F 29.19 in Calm     96 % 0.00 in 5 W/m2
10:13 33.3 °F 32.2 °F 29.19 in Calm     96 % 0.00 in 5 W/m2
10:14 33.3 °F 32.2 °F 29.19 in Calm     96 % 0.00 in 7 W/m2
10:18 33.3 °F 32.2 °F 29.19 in Calm     96 % 0.00 in 7 W/m2
10:19 33.3 °F 32.2 °F 29.18 in Calm     96 % 0.00 in 7 W/m2
10:20 33.3 °F 32.2 °F 29.18 in Calm     96 % 0.00 in 7 W/m2
10:24 33.1 °F 32.1 °F 29.18 in Calm     96 % 0.00 in 9 W/m2
10:27 33.1 °F 32.1 °F 29.18 in Calm     96 % 0.00 in 9 W/m2
10:29 33.1 °F 32.1 °F 29.18 in Calm     96 % 0.00 in 9 W/m2
10:33 33.3 °F 32.2 °F 29.18 in Calm     96 % 0.00 in 11 W/m2
10:38 33.3 °F 32.2 °F 29.18 in Calm     96 % 0.00 in 11 W/m2
10:43 33.3 °F 32.2 °F 29.18 in Calm     96 % 0.00 in 14 W/m2
10:48 33.3 °F 32.2 °F 29.18 in Calm     96 % 0.00 in 12 W/m2
10:50 33.3 °F 32.2 °F 29.18 in Calm     96 % 0.00 in 12 W/m2
10:54 33.3 °F 32.2 °F 29.18 in Calm     96 % 0.00 in 12 W/m2
10:55 33.3 °F 32.2 °F 29.18 in Calm     96 % 0.00 in 12 W/m2
11:01 33.4 °F 32.4 °F 29.18 in Calm     96 % 0.00 in 14 W/m2
11:05 33.3 °F 32.2 °F 29.18 in Calm     96 % 0.00 in 14 W/m2
11:09 33.3 °F 32.2 °F 29.18 in Calm     96 % 0.00 in 16 W/m2
11:14 33.4 °F 32.4 °F 29.18 in Calm     96 % 0.00 in 16 W/m2
11:19 33.4 °F 32.4 °F 29.18 in Calm     96 % 0.00 in 18 W/m2
11:21 33.4 °F 32.4 °F 29.18 in Calm     96 % 0.00 in 19 W/m2
11:26 33.3 °F 32.2 °F 29.18 in Calm     96 % 0.00 in 18 W/m2
11:28 33.3 °F 32.2 °F 29.18 in Calm     96 % 0.00 in 19 W/m2
11:33 33.4 °F 32.4 °F 29.18 in Calm     96 % 0.00 in 25 W/m2
11:35 33.4 °F 32.4 °F 29.18 in Calm     96 % 0.00 in 25 W/m2
11:39 33.4 °F 32.4 °F 29.18 in Calm     96 % 0.00 in 26 W/m2
11:40 33.4 °F 32.4 °F 29.18 in Calm     96 % 0.00 in 26 W/m2
11:45 33.4 °F 32.4 °F 29.18 in Calm     96 % 0.00 in 26 W/m2
11:46 33.4 °F 32.4 °F 29.18 in Calm     96 % 0.00 in 26 W/m2
11:51 33.4 °F 32.4 °F 29.18 in Calm     96 % 0.00 in 28 W/m2
11:52 33.4 °F 32.4 °F 29.17 in Calm     96 % 0.00 in 30 W/m2
11:58 33.6 °F 32.6 °F 29.17 in Calm     96 % 0.00 in 32 W/m2
12:00 33.6 °F 32.6 °F 29.18 in Calm     96 % 0.00 in 32 W/m2
12:05 33.6 °F 32.6 °F 29.18 in Calm     96 % 0.01 in 30 W/m2
12:09 33.6 °F 32.6 °F 29.18 in Calm     96 % 0.01 in 30 W/m2
12:14 33.6 °F 32.6 °F 29.18 in Calm     96 % 0.01 in 28 W/m2
12:15 33.6 °F 32.6 °F 29.18 in Calm     96 % 0.01 in 28 W/m2
12:16 33.6 °F 32.6 °F 29.18 in Calm     96 % 0.01 in 28 W/m2
12:21 33.6 °F 32.6 °F 29.17 in Calm     96 % 0.01 in 30 W/m2
12:26 33.6 °F 32.6 °F 29.18 in Calm     96 % 0.01 in 32 W/m2
12:31 33.6 °F 32.6 °F 29.18 in Calm     96 % 0.01 in 33 W/m2
12:36 33.6 °F 32.6 °F 29.18 in Calm     96 % 0.01 in 37 W/m2
12:37 33.6 °F 32.6 °F 29.18 in Calm     96 % 0.01 in 39 W/m2
12:42 33.6 °F 32.6 °F 29.18 in Calm     96 % 0.02 in 42 W/m2
12:44 33.6 °F 32.6 °F 29.18 in Calm     96 % 0.02 in 42 W/m2
12:47 33.6 °F 32.6 °F 29.18 in Calm     96 % 0.02 in 44 W/m2
12:49 33.6 °F 32.6 °F 29.18 in Calm     96 % 0.02 in 46 W/m2
12:54 33.8 °F 32.8 °F 29.18 in WNW 3.0 mph 7.0 mph 96 % 0.02 in 53 W/m2
12:55 33.8 °F 32.8 °F 29.18 in WNW 3.0 mph 7.0 mph 96 % 0.02 in 53 W/m2
13:00 34.2 °F 33.1 °F 29.18 in WNW 7.0 mph 10.0 mph 96 % 0.02 in 58 W/m2
13:04 34.9 °F 34.1 °F 29.18 in WNW 7.0 mph 10.0 mph 97 % 0.01 in 63 W/m2
13:09 35.2 °F 34.5 °F 29.18 in WNW 7.0 mph 10.0 mph 97 % 0.02 in 70 W/m2
13:10 35.2 °F 34.5 °F 29.18 in WNW 7.0 mph 11.0 mph 97 % 0.02 in 72 W/m2
13:11 35.4 °F 34.7 °F 29.18 in WNW 7.0 mph 15.0 mph 97 % 0.02 in 72 W/m2
13:16 36.0 °F 35.2 °F 29.18 in WNW 10.0 mph 18.0 mph 97 % 0.02 in 86 W/m2
13:21 36.3 °F 35.6 °F 29.18 in WNW 12.0 mph 19.0 mph 97 % 0.02 in 102 W/m2
13:22 36.5 °F 35.7 °F 29.18 in WNW 12.0 mph 19.0 mph 97 % 0.02 in 102 W/m2
13:27 36.9 °F 36.1 °F 29.18 in West 10.0 mph 16.0 mph 97 % 0.02 in 118 W/m2
13:28 37.0 °F 36.3 °F 29.18 in West 11.0 mph 19.0 mph 97 % 0.02 in 123 W/m2
13:29 37.0 °F 36.3 °F 29.18 in West 11.0 mph 20.0 mph 97 % 0.02 in 121 W/m2
13:34 37.2 °F 36.4 °F 29.19 in WNW 15.0 mph 23.0 mph 97 % 0.03 in 95 W/m2
13:35 37.2 °F 36.2 °F 29.19 in WNW 15.0 mph 23.0 mph 96 % 0.03 in 91 W/m2
13:37 37.4 °F 36.4 °F 29.19 in WNW 14.0 mph 21.0 mph 96 % 0.03 in 95 W/m2
13:42 37.6 °F 36.5 °F 29.19 in West 14.0 mph 21.0 mph 96 % 0.02 in 104 W/m2
13:47 37.6 °F 36.3 °F 29.19 in West 13.0 mph 22.0 mph 95 % 0.03 in 121 W/m2
13:52 37.6 °F 36.3 °F 29.20 in WNW 16.0 mph 22.0 mph 95 % 0.04 in 116 W/m2
13:54 37.8 °F 36.5 °F 29.20 in WNW 16.0 mph 26.0 mph 95 % 0.04 in 162 W/m2
13:59 37.9 °F 36.4 °F 29.19 in West 11.0 mph 18.0 mph 94 % 0.05 in 192 W/m2
14:01 37.9 °F 36.4 °F 29.19 in West 13.0 mph 20.0 mph 94 % 0.05 in 197 W/m2
14:06 38.3 °F 36.7 °F 29.20 in WNW 12.0 mph 19.0 mph 94 % 0.05 in 113 W/m2
14:09 38.5 °F 36.9 °F 29.20 in WNW 13.0 mph 22.0 mph 94 % 0.05 in 163 W/m2
14:15 38.7 °F 36.8 °F 29.20 in WNW 14.0 mph 24.0 mph 93 % 0.06 in 195 W/m2
14:20 38.8 °F 37.0 °F 29.20 in WNW 11.0 mph 19.0 mph 93 % 0.06 in 107 W/m2
14:22 38.8 °F 37.0 °F 29.20 in WNW 12.0 mph 19.0 mph 93 % 0.06 in 102 W/m2
14:27 38.8 °F 36.7 °F 29.20 in WNW 11.0 mph 16.0 mph 92 % 0.06 in 83 W/m2
14:32 38.8 °F 36.7 °F 29.20 in West 11.0 mph 16.0 mph 92 % 0.06 in 69 W/m2
14:34 38.7 °F 36.5 °F 29.21 in West 11.0 mph 19.0 mph 92 % 0.06 in 97 W/m2
14:39 38.7 °F 36.5 °F 29.21 in West 14.0 mph 21.0 mph 92 % 0.06 in 53 W/m2
14:44 38.7 °F 36.5 °F 29.21 in West 14.0 mph 24.0 mph 92 % 0.06 in 65 W/m2
14:49 38.7 °F 36.5 °F 29.22 in West 12.0 mph 23.0 mph 92 % 0.05 in 42 W/m2
14:50 38.7 °F 36.5 °F 29.22 in West 14.0 mph 25.0 mph 92 % 0.05 in 42 W/m2
14:56 38.7 °F 36.5 °F 29.22 in West 14.0 mph 23.0 mph 92 % 0.05 in 63 W/m2
15:02 38.5 °F 36.4 °F 29.22 in West 12.0 mph 20.0 mph 92 % 0.04 in 30 W/m2
15:05 38.5 °F 36.4 °F 29.22 in West 15.0 mph 24.0 mph 92 % 0.04 in 26 W/m2
15:07 38.5 °F 36.4 °F 29.22 in West 13.0 mph 21.0 mph 92 % 0.04 in 25 W/m2
15:12 38.5 °F 36.4 °F 29.22 in West 11.0 mph 19.0 mph 92 % 0.04 in 26 W/m2
15:13 38.5 °F 36.4 °F 29.22 in West 11.0 mph 19.0 mph 92 % 0.04 in 28 W/m2
15:18 38.5 °F 36.4 °F 29.22 in West 12.0 mph 20.0 mph 92 % 0.03 in 21 W/m2
15:19 38.5 °F 36.4 °F 29.22 in West 11.0 mph 18.0 mph 92 % 0.03 in 21 W/m2
15:20 38.7 °F 36.5 °F 29.23 in West 11.0 mph 18.0 mph 92 % 0.03 in 19 W/m2
15:24 38.7 °F 36.5 °F 29.23 in West 11.0 mph 18.0 mph 92 % 0.03 in 19 W/m2
15:29 38.8 °F 36.7 °F 29.23 in West 11.0 mph 16.0 mph 92 % 0.02 in 16 W/m2
15:34 39.0 °F 36.9 °F 29.24 in West 10.0 mph 15.0 mph 92 % 0.02 in 14 W/m2
15:37 39.0 °F 36.9 °F 29.24 in West 13.0 mph 21.0 mph 92 % 0.02 in 14 W/m2
15:40 39.0 °F 36.9 °F 29.24 in West 13.0 mph 22.0 mph 92 % 0.02 in 16 W/m2
15:45 39.2 °F 37.1 °F 29.25 in West 12.0 mph 19.0 mph 92 % 0.02 in 12 W/m2
15:46 39.2 °F 37.1 °F 29.25 in West 13.0 mph 19.0 mph 92 % 0.02 in 11 W/m2
15:51 39.2 °F 37.1 °F 29.25 in West 10.0 mph 16.0 mph 92 % 0.02 in 0 W/m2
15:53 39.2 °F 37.1 °F 29.25 in West 9.0 mph 15.0 mph 92 % 0.02 in 0 W/m2
15:58 39.2 °F 37.1 °F 29.25 in West 8.0 mph 13.0 mph 92 % 0.02 in 0 W/m2
15:59 39.2 °F 37.1 °F 29.25 in West 8.0 mph 13.0 mph 92 % 0.02 in 0 W/m2
16:04 39.2 °F 37.1 °F 29.25 in West 10.0 mph 16.0 mph 92 % 0.02 in 0 W/m2
16:05 39.4 °F 37.2 °F 29.25 in West 9.0 mph 14.0 mph 92 % 0.02 in 0 W/m2
16:07 39.4 °F 37.2 °F 29.25 in West 9.0 mph 14.0 mph 92 % 0.02 in 0 W/m2
16:12 39.4 °F 37.2 °F 29.25 in West 10.0 mph 15.0 mph 92 % 0.02 in 0 W/m2
16:14 39.4 °F 37.2 °F 29.25 in West 9.0 mph 13.0 mph 92 % 0.02 in 0 W/m2
16:18 39.4 °F 37.2 °F 29.25 in West 8.0 mph 12.0 mph 92 % 0.02 in 0 W/m2
16:23 39.6 °F 37.4 °F 29.26 in West 9.0 mph 13.0 mph 92 % 0.02 in 0 W/m2
16:24 39.6 °F 37.4 °F 29.26 in West 9.0 mph 15.0 mph 92 % 0.02 in 0 W/m2
16:29 39.6 °F 37.4 °F 29.26 in West 9.0 mph 14.0 mph 92 % 0.02 in 0 W/m2
16:32 39.7 °F 37.6 °F 29.26 in West 11.0 mph 18.0 mph 92 % 0.02 in 0 W/m2
16:35 39.7 °F 37.6 °F 29.26 in West 14.0 mph 22.0 mph 92 % 0.02 in 0 W/m2
16:40 39.9 °F 37.8 °F 29.26 in WNW 11.0 mph 19.0 mph 92 % 0.01 in 0 W/m2
16:44 39.9 °F 37.8 °F 29.26 in West 14.0 mph 21.0 mph 92 % 0.01 in 0 W/m2
16:46 40.1 °F 37.7 °F 29.27 in West 12.0 mph 21.0 mph 91 % 0.01 in 0 W/m2
16:49 40.1 °F 37.7 °F 29.26 in WNW 13.0 mph 23.0 mph 91 % 0.01 in 0 W/m2
16:51 40.1 °F 37.7 °F 29.26 in WNW 12.0 mph 19.0 mph 91 % 0.01 in 0 W/m2
16:54 40.3 °F 37.9 °F 29.27 in West 10.0 mph 14.0 mph 91 % 0.01 in 0 W/m2
16:59 40.3 °F 37.9 °F 29.27 in West 13.0 mph 24.0 mph 91 % 0.01 in 0 W/m2
17:01 40.5 °F 38.0 °F 29.27 in West 14.0 mph 21.0 mph 91 % 0.01 in 0 W/m2
17:06 40.6 °F 37.9 °F 29.27 in West 15.0 mph 27.0 mph 90 % 0.00 in 0 W/m2
17:09 40.8 °F 38.1 °F 29.27 in West 14.0 mph 23.0 mph 90 % 0.00 in 0 W/m2
17:14 41.2 °F 38.2 °F 29.28 in West 12.0 mph 19.0 mph 89 % 0.00 in 0 W/m2
17:19 41.2 °F 37.9 °F 29.27 in West 10.0 mph 19.0 mph 88 % 0.00 in 0 W/m2
17:24 41.4 °F 38.1 °F 29.27 in West 14.0 mph 20.0 mph 88 % 0.00 in 0 W/m2
17:28 41.4 °F 37.8 °F 29.27 in West 15.0 mph 23.0 mph 87 % 0.00 in 0 W/m2
17:33 41.5 °F 38.0 °F 29.28 in West 14.0 mph 24.0 mph 87 % 0.00 in 0 W/m2
17:34 41.5 °F 37.7 °F 29.27 in West 12.0 mph 21.0 mph 86 % 0.00 in 0 W/m2
17:39 41.4 °F 37.5 °F 29.28 in West 15.0 mph 24.0 mph 86 % 0.00 in 0 W/m2
17:40 41.4 °F 37.5 °F 29.27 in West 14.0 mph 22.0 mph 86 % 0.00 in 0 W/m2
17:45 41.5 °F 37.7 °F 29.28 in West 17.0 mph 29.0 mph 86 % 0.00 in 0 W/m2
17:49 41.5 °F 37.4 °F 29.28 in West 13.0 mph 21.0 mph 85 % 0.00 in 0 W/m2
17:52 41.5 °F 37.4 °F 29.27 in West 15.0 mph 24.0 mph 85 % 0.00 in 0 W/m2
17:57 41.5 °F 37.4 °F 29.27 in West 16.0 mph 29.0 mph 85 % 0.00 in 0 W/m2
18:02 41.5 °F 37.4 °F 29.27 in West 17.0 mph 27.0 mph 85 % 0.00 in 0 W/m2
18:03 41.5 °F 37.4 °F 29.27 in West 19.0 mph 27.0 mph 85 % 0.00 in 0 W/m2
18:04 41.7 °F 37.5 °F 29.27 in West 22.0 mph 33.0 mph 85 % 0.00 in 0 W/m2
18:09 41.7 °F 37.2 °F 29.28 in West 18.0 mph 27.0 mph 84 % 0.00 in 0 W/m2
18:14 41.7 °F 37.2 °F 29.27 in West 17.0 mph 32.0 mph 84 % 0.00 in 0 W/m2
18:15 41.7 °F 37.2 °F 29.27 in West 16.0 mph 31.0 mph 84 % 0.00 in 0 W/m2
18:20 41.7 °F 37.2 °F 29.28 in West 20.0 mph 30.0 mph 84 % 0.00 in 0 W/m2
18:21 41.5 °F 37.1 °F 29.28 in West 21.0 mph 30.0 mph 84 % 0.00 in 0 W/m2
18:26 41.5 °F 37.1 °F 29.28 in West 14.0 mph 26.0 mph 84 % 0.00 in 0 W/m2
18:27 41.5 °F 37.1 °F 29.28 in West 14.0 mph 26.0 mph 84 % 0.00 in 0 W/m2
18:30 41.5 °F 37.1 °F 29.28 in West 14.0 mph 21.0 mph 84 % 0.00 in 0 W/m2
18:34 41.5 °F 37.1 °F 29.29 in West 13.0 mph 21.0 mph 84 % 0.00 in 0 W/m2
18:40 41.5 °F 36.8 °F 29.30 in West 14.0 mph 22.0 mph 83 % 0.00 in 0 W/m2
18:41 41.5 °F 36.8 °F 29.30 in West 14.0 mph 22.0 mph 83 % 0.00 in 0 W/m2
18:46 41.5 °F 36.8 °F 29.31 in West 16.0 mph 24.0 mph 83 % 0.00 in 0 W/m2
18:51 41.5 °F 36.8 °F 29.31 in West 9.0 mph 15.0 mph 83 % 0.00 in 0 W/m2
18:52 41.5 °F 36.8 °F 29.32 in West 8.0 mph 15.0 mph 83 % 0.00 in 0 W/m2
18:57 41.5 °F 36.8 °F 29.33 in SW 8.0 mph 15.0 mph 83 % 0.00 in 0 W/m2
18:58 41.5 °F 36.8 °F 29.33 in SW 10.0 mph 22.0 mph 83 % 0.00 in 0 W/m2
19:00 41.5 °F 36.8 °F 29.33 in WSW 12.0 mph 26.0 mph 83 % 0.00 in 0 W/m2
19:03 41.7 °F 36.6 °F 29.32 in WSW 10.0 mph 16.0 mph 82 % 0.00 in 0 W/m2
19:08 41.5 °F 36.5 °F 29.32 in WSW 12.0 mph 22.0 mph 82 % 0.00 in 0 W/m2
19:09 41.5 °F 36.5 °F 29.32 in WSW 12.0 mph 22.0 mph 82 % 0.00 in 0 W/m2
19:12 41.7 °F 36.3 °F 29.33 in WSW 13.0 mph 23.0 mph 81 % 0.00 in 0 W/m2
19:15 41.7 °F 36.3 °F 29.33 in WSW 13.0 mph 26.0 mph 81 % 0.00 in 0 W/m2
19:18 41.7 °F 36.3 °F 29.33 in WSW 12.0 mph 22.0 mph 81 % 0.00 in 0 W/m2
19:21 41.7 °F 36.3 °F 29.33 in WSW 16.0 mph 25.0 mph 81 % 0.00 in 0 W/m2
19:27 41.7 °F 36.3 °F 29.33 in West 15.0 mph 25.0 mph 81 % 0.00 in 0 W/m2
19:32 41.7 °F 36.0 °F 29.33 in WSW 13.0 mph 21.0 mph 80 % 0.00 in 0 W/m2
19:33 41.5 °F 35.8 °F 29.33 in WSW 11.0 mph 21.0 mph 80 % 0.00 in 0 W/m2
19:36 41.5 °F 35.8 °F 29.33 in WSW 8.0 mph 13.0 mph 80 % 0.00 in 0 W/m2
19:39 41.4 °F 35.7 °F 29.33 in SW 8.0 mph 15.0 mph 80 % 0.00 in 0 W/m2
19:43 41.4 °F 36.0 °F 29.33 in SW 8.0 mph 15.0 mph 81 % 0.00 in 0 W/m2
19:45 41.4 °F 35.7 °F 29.33 in SW 7.0 mph 14.0 mph 80 % 0.00 in 0 W/m2
19:50 41.2 °F 35.8 °F 29.33 in WSW 8.0 mph 14.0 mph 81 % 0.00 in 0 W/m2
19:51 41.2 °F 35.8 °F 29.33 in WSW 9.0 mph 13.0 mph 81 % 0.00 in 0 W/m2
19:52 41.2 °F 35.8 °F 29.33 in WSW 9.0 mph 13.0 mph 81 % 0.00 in 0 W/m2
19:56 41.2 °F 35.8 °F 29.33 in WSW 10.0 mph 14.0 mph 81 % 0.00 in 0 W/m2
20:01 41.2 °F 35.5 °F 29.33 in WSW 14.0 mph 23.0 mph 80 % 0.00 in 0 W/m2
20:02 41.4 °F 35.7 °F 29.33 in WSW 13.0 mph 23.0 mph 80 % 0.00 in 0 W/m2
20:07 41.4 °F 35.7 °F 29.33 in WSW 14.0 mph 24.0 mph 80 % 0.00 in 0 W/m2
20:10 41.4 °F 35.7 °F 29.33 in WSW 13.0 mph 21.0 mph 80 % 0.00 in 0 W/m2
20:13 41.4 °F 35.7 °F 29.32 in West 14.0 mph 25.0 mph 80 % 0.00 in 0 W/m2
20:18 41.2 °F 35.5 °F 29.33 in West 15.0 mph 25.0 mph 80 % 0.00 in 0 W/m2
20:23 41.2 °F 35.5 °F 29.33 in West 16.0 mph 24.0 mph 80 % 0.00 in 0 W/m2
20:24 41.2 °F 35.5 °F 29.33 in West 16.0 mph 24.0 mph 80 % 0.00 in 0 W/m2
20:29 41.2 °F 35.5 °F 29.33 in West 12.0 mph 19.0 mph 80 % 0.00 in 0 W/m2
20:34 41.2 °F 35.5 °F 29.33 in West 15.0 mph 29.0 mph 80 % 0.00 in 0 W/m2
20:36 41.2 °F 35.5 °F 29.33 in West 13.0 mph 22.0 mph 80 % 0.00 in 0 W/m2
20:41 41.2 °F 35.5 °F 29.33 in WSW 12.0 mph 21.0 mph 80 % 0.00 in 0 W/m2
20:42 41.2 °F 35.5 °F 29.34 in West 12.0 mph 21.0 mph 80 % 0.00 in 0 W/m2
20:45 41.2 °F 35.5 °F 29.34 in WSW 10.0 mph 14.0 mph 80 % 0.00 in 0 W/m2
20:48 41.0 °F 35.3 °F 29.34 in West 12.0 mph 21.0 mph 80 % 0.00 in 0 W/m2
20:53 40.8 °F 35.4 °F 29.34 in West 9.0 mph 15.0 mph 81 % 0.00 in 0 W/m2
20:58 40.8 °F 35.4 °F 29.34 in WSW 9.0 mph 14.0 mph 81 % 0.00 in 0 W/m2
21:01 40.6 °F 35.3 °F 29.35 in WSW 9.0 mph 18.0 mph 81 % 0.00 in 0 W/m2
21:06 40.6 °F 35.3 °F 29.35 in WSW 10.0 mph 15.0 mph 81 % 0.00 in 0 W/m2
21:08 40.6 °F 35.3 °F 29.35 in SW 11.0 mph 15.0 mph 81 % 0.00 in 0 W/m2
21:13 40.6 °F 35.3 °F 29.35 in WSW 10.0 mph 16.0 mph 81 % 0.00 in 0 W/m2
21:14 40.6 °F 35.3 °F 29.35 in WSW 11.0 mph 18.0 mph 81 % 0.00 in 0 W/m2
21:19 40.6 °F 35.3 °F 29.35 in WSW 14.0 mph 21.0 mph 81 % 0.00 in 0 W/m2
21:21 40.6 °F 35.3 °F 29.35 in WSW 12.0 mph 20.0 mph 81 % 0.00 in 0 W/m2
21:26 40.6 °F 35.3 °F 29.35 in WSW 10.0 mph 15.0 mph 81 % 0.00 in 0 W/m2
21:28 40.6 °F 35.3 °F 29.35 in WSW 10.0 mph 16.0 mph 81 % 0.00 in 0 W/m2
21:33 40.6 °F 35.0 °F 29.35 in WSW 11.0 mph 18.0 mph 80 % 0.00 in 0 W/m2
21:38 40.6 °F 35.0 °F 29.35 in WSW 9.0 mph 14.0 mph 80 % 0.00 in 0 W/m2
21:39 40.6 °F 35.0 °F 29.35 in WSW 9.0 mph 14.0 mph 80 % 0.00 in 0 W/m2
21:44 40.5 °F 34.8 °F 29.34 in WSW 10.0 mph 13.0 mph 80 % 0.00 in 0 W/m2
21:45 40.5 °F 34.8 °F 29.34 in West 10.0 mph 15.0 mph 80 % 0.00 in 0 W/m2
21:47 40.5 °F 35.1 °F 29.34 in WSW 11.0 mph 19.0 mph 81 % 0.00 in 0 W/m2
21:52 40.3 °F 34.9 °F 29.34 in West 12.0 mph 19.0 mph 81 % 0.00 in 0 W/m2
21:55 40.5 °F 35.1 °F 29.34 in West 10.0 mph 15.0 mph 81 % 0.00 in 0 W/m2
22:01 40.5 °F 35.1 °F 29.34 in WSW 12.0 mph 16.0 mph 81 % 0.00 in 0 W/m2
22:03 40.5 °F 35.1 °F 29.33 in WSW 12.0 mph 16.0 mph 81 % 0.00 in 0 W/m2
22:08 40.6 °F 35.3 °F 29.34 in WSW 9.0 mph 15.0 mph 81 % 0.00 in 0 W/m2
22:10 40.6 °F 35.0 °F 29.34 in WSW 11.0 mph 15.0 mph 80 % 0.00 in 0 W/m2
22:15 40.8 °F 35.1 °F 29.34 in SW 8.0 mph 15.0 mph 80 % 0.00 in 0 W/m2
22:19 40.6 °F 35.0 °F 29.35 in SW 8.0 mph 13.0 mph 80 % 0.00 in 0 W/m2
22:24 40.6 °F 35.3 °F 29.35 in SW 8.0 mph 13.0 mph 81 % 0.00 in 0 W/m2
22:26 40.6 °F 35.3 °F 29.35 in SW 9.0 mph 14.0 mph 81 % 0.00 in 0 W/m2
22:31 40.6 °F 35.0 °F 29.34 in SW 8.0 mph 12.0 mph 80 % 0.00 in 0 W/m2
22:35 40.6 °F 35.0 °F 29.34 in WSW 7.0 mph 10.0 mph 80 % 0.00 in 0 W/m2
22:37 40.6 °F 35.0 °F 29.34 in WSW 9.0 mph 14.0 mph 80 % 0.00 in 0 W/m2
22:38 40.6 °F 35.0 °F 29.34 in WSW 9.0 mph 14.0 mph 80 % 0.00 in 0 W/m2
22:42 40.5 °F 35.1 °F 29.33 in WSW 10.0 mph 16.0 mph 81 % 0.00 in 0 W/m2
22:43 40.5 °F 34.8 °F 29.33 in WSW 11.0 mph 18.0 mph 80 % 0.00 in 0 W/m2
22:48 40.5 °F 35.1 °F 29.33 in WSW 9.0 mph 15.0 mph 81 % 0.00 in 0 W/m2
22:49 40.5 °F 35.1 °F 29.33 in WSW 9.0 mph 16.0 mph 81 % 0.00 in 0 W/m2
22:50 40.5 °F 35.1 °F 29.34 in WSW 11.0 mph 19.0 mph 81 % 0.00 in 0 W/m2
22:55 40.6 °F 35.0 °F 29.34 in WSW 12.0 mph 16.0 mph 80 % 0.00 in 0 W/m2
22:56 40.6 °F 35.0 °F 29.34 in WSW 11.0 mph 16.0 mph 80 % 0.00 in 0 W/m2
23:01 40.6 °F 35.3 °F 29.34 in SW 10.0 mph 18.0 mph 81 % 0.00 in 0 W/m2
23:02 40.6 °F 35.3 °F 29.34 in SW 10.0 mph 18.0 mph 81 % 0.00 in 0 W/m2
23:07 40.6 °F 35.0 °F 29.35 in SW 7.0 mph 10.0 mph 80 % 0.00 in 0 W/m2
23:12 40.6 °F 35.3 °F 29.35 in SSW 7.0 mph 14.0 mph 81 % 0.00 in 0 W/m2
23:13 40.6 °F 35.3 °F 29.34 in SSW 7.0 mph 14.0 mph 81 % 0.00 in 0 W/m2
23:18 40.6 °F 35.3 °F 29.34 in SSW 9.0 mph 16.0 mph 81 % 0.00 in 0 W/m2
23:19 40.6 °F 35.0 °F 29.34 in SSW 7.0 mph 11.0 mph 80 % 0.00 in 0 W/m2
23:20 40.6 °F 35.0 °F 29.34 in SSW 6.0 mph 11.0 mph 80 % 0.00 in 0 W/m2
23:23 40.6 °F 35.0 °F 29.33 in South 5.0 mph 8.0 mph 80 % 0.00 in 0 W/m2
23:25 40.6 °F 35.0 °F 29.34 in South 5.0 mph 9.0 mph 80 % 0.00 in 0 W/m2
23:29 40.6 °F 35.0 °F 29.33 in SSE 5.0 mph 9.0 mph 80 % 0.00 in 0 W/m2
23:34 40.6 °F 35.3 °F 29.32 in South 4.0 mph 11.0 mph 81 % 0.00 in 0 W/m2
23:39 40.5 °F 35.1 °F 29.31 in SSW 6.0 mph 12.0 mph 81 % 0.00 in 0 W/m2
23:40 40.5 °F 35.1 °F 29.31 in SSW 8.0 mph 12.0 mph 81 % 0.00 in 0 W/m2
23:41 40.5 °F 35.1 °F 29.31 in SSW 8.0 mph 12.0 mph 81 % 0.00 in 0 W/m2
23:46 40.5 °F 35.1 °F 29.30 in SSW 9.0 mph 14.0 mph 81 % 0.00 in 0 W/m2
23:47 40.5 °F 35.1 °F 29.30 in SSW 9.0 mph 15.0 mph 81 % 0.00 in 0 W/m2
23:50 40.6 °F 35.3 °F 29.30 in SSW 9.0 mph 15.0 mph 81 % 0.00 in 0 W/m2
23:53 40.6 °F 35.3 °F 29.29 in South 8.0 mph 13.0 mph 81 % 0.00 in 0 W/m2
23:56 40.5 °F 35.1 °F 29.29 in South 7.0 mph 12.0 mph 81 % 0.00 in 0 W/m2
23:59 40.3 °F 34.9 °F 29.30 in SSE 7.0 mph 12.0 mph 81 % 0.00 in 0 W/m2
Delerius-Weather
Compliments of Weather Underground - 3 mb

Data updates at regular intervals.